sensor_id;sensor_type;location;lat;lon;timestamp;P1;durP1;ratioP1;P2;durP2;ratioP2
74495;SDS011;62979;55.720;37.606;2023-08-31T00:00:10;6.07;;;3.60;;
74495;SDS011;62979;55.720;37.606;2023-08-31T00:02:39;7.43;;;4.00;;
74495;SDS011;62979;55.720;37.606;2023-08-31T00:05:07;5.28;;;3.25;;
74495;SDS011;62979;55.720;37.606;2023-08-31T00:07:35;8.45;;;3.65;;
74495;SDS011;62979;55.720;37.606;2023-08-31T00:10:01;9.32;;;3.78;;
74495;SDS011;62979;55.720;37.606;2023-08-31T00:12:34;8.43;;;5.50;;
74495;SDS011;62979;55.720;37.606;2023-08-31T00:15:03;14.52;;;6.38;;
74495;SDS011;62979;55.720;37.606;2023-08-31T00:17:32;8.30;;;4.70;;
74495;SDS011;62979;55.720;37.606;2023-08-31T00:19:59;10.00;;;6.35;;
74495;SDS011;62979;55.720;37.606;2023-08-31T00:22:26;7.65;;;5.47;;
74495;SDS011;62979;55.720;37.606;2023-08-31T00:24:53;10.00;;;6.38;;
74495;SDS011;62979;55.720;37.606;2023-08-31T00:27:21;12.25;;;6.05;;
74495;SDS011;62979;55.720;37.606;2023-08-31T00:29:48;10.50;;;6.15;;
74495;SDS011;62979;55.720;37.606;2023-08-31T00:32:16;9.55;;;6.13;;
74495;SDS011;62979;55.720;37.606;2023-08-31T00:34:45;8.82;;;5.60;;
74495;SDS011;62979;55.720;37.606;2023-08-31T00:37:12;10.05;;;5.30;;
74495;SDS011;62979;55.720;37.606;2023-08-31T00:39:39;13.27;;;6.28;;
74495;SDS011;62979;55.720;37.606;2023-08-31T00:42:06;9.50;;;5.88;;
74495;SDS011;62979;55.720;37.606;2023-08-31T00:47:00;10.27;;;5.97;;
74495;SDS011;62979;55.720;37.606;2023-08-31T00:49:28;8.95;;;5.43;;
74495;SDS011;62979;55.720;37.606;2023-08-31T00:51:57;11.68;;;6.38;;
74495;SDS011;62979;55.720;37.606;2023-08-31T00:54:24;13.43;;;7.35;;
74495;SDS011;62979;55.720;37.606;2023-08-31T00:56:52;16.00;;;8.13;;
74495;SDS011;62979;55.720;37.606;2023-08-31T00:59:20;14.35;;;8.40;;
74495;SDS011;62979;55.720;37.606;2023-08-31T01:01:49;12.10;;;7.88;;
74495;SDS011;62979;55.720;37.606;2023-08-31T01:04:29;15.45;;;9.77;;
74495;SDS011;62979;55.720;37.606;2023-08-31T01:09:52;13.88;;;7.97;;
74495;SDS011;62979;55.720;37.606;2023-08-31T01:12:30;10.88;;;7.82;;
74495;SDS011;62979;55.720;37.606;2023-08-31T01:15:06;15.63;;;9.02;;
74495;SDS011;62979;55.720;37.606;2023-08-31T01:17:39;11.80;;;8.50;;
74495;SDS011;62979;55.720;37.606;2023-08-31T01:20:10;12.50;;;7.60;;
74495;SDS011;62979;55.720;37.606;2023-08-31T01:22:47;13.70;;;8.55;;
74495;SDS011;62979;55.720;37.606;2023-08-31T01:25:23;9.82;;;6.47;;
74495;SDS011;62979;55.720;37.606;2023-08-31T01:27:50;11.93;;;6.07;;
74495;SDS011;62979;55.720;37.606;2023-08-31T01:30:18;10.77;;;7.60;;
74495;SDS011;62979;55.720;37.606;2023-08-31T01:32:45;9.48;;;6.30;;
74495;SDS011;62979;55.720;37.606;2023-08-31T01:35:13;10.43;;;6.32;;
74495;SDS011;62979;55.720;37.606;2023-08-31T01:37:45;10.65;;;7.22;;
74495;SDS011;62979;55.720;37.606;2023-08-31T01:40:19;13.52;;;6.47;;
74495;SDS011;62979;55.720;37.606;2023-08-31T01:42:57;9.43;;;6.47;;
74495;SDS011;62979;55.720;37.606;2023-08-31T01:45:28;11.30;;;6.07;;
74495;SDS011;62979;55.720;37.606;2023-08-31T01:47:58;9.35;;;5.20;;
74495;SDS011;62979;55.720;37.606;2023-08-31T01:50:25;11.63;;;7.18;;
74495;SDS011;62979;55.720;37.606;2023-08-31T01:52:52;11.18;;;6.60;;
74495;SDS011;62979;55.720;37.606;2023-08-31T01:55:19;8.98;;;6.13;;
74495;SDS011;62979;55.720;37.606;2023-08-31T01:57:48;10.35;;;7.03;;
74495;SDS011;62979;55.720;37.606;2023-08-31T02:00:16;10.73;;;6.05;;
74495;SDS011;62979;55.720;37.606;2023-08-31T02:02:44;8.38;;;5.85;;
74495;SDS011;62979;55.720;37.606;2023-08-31T02:05:11;11.23;;;7.03;;
74495;SDS011;62979;55.720;37.606;2023-08-31T02:07:38;10.93;;;6.35;;
74495;SDS011;62979;55.720;37.606;2023-08-31T02:10:06;10.00;;;6.35;;
74495;SDS011;62979;55.720;37.606;2023-08-31T02:12:34;14.40;;;6.90;;
74495;SDS011;62979;55.720;37.606;2023-08-31T02:15:04;8.73;;;5.57;;
74495;SDS011;62979;55.720;37.606;2023-08-31T02:17:32;14.93;;;6.93;;
74495;SDS011;62979;55.720;37.606;2023-08-31T02:20:01;10.23;;;6.03;;
74495;SDS011;62979;55.720;37.606;2023-08-31T02:22:29;12.55;;;6.22;;
74495;SDS011;62979;55.720;37.606;2023-08-31T02:24:57;10.32;;;7.10;;
74495;SDS011;62979;55.720;37.606;2023-08-31T02:27:24;10.15;;;6.45;;
74495;SDS011;62979;55.720;37.606;2023-08-31T02:29:51;8.65;;;5.95;;
74495;SDS011;62979;55.720;37.606;2023-08-31T02:32:19;7.95;;;5.95;;
74495;SDS011;62979;55.720;37.606;2023-08-31T02:34:46;12.63;;;6.63;;
74495;SDS011;62979;55.720;37.606;2023-08-31T02:37:13;12.02;;;6.18;;
74495;SDS011;62979;55.720;37.606;2023-08-31T02:39:40;10.52;;;7.05;;
74495;SDS011;62979;55.720;37.606;2023-08-31T02:42:07;10.18;;;5.97;;
74495;SDS011;62979;55.720;37.606;2023-08-31T02:44:34;10.98;;;5.82;;
74495;SDS011;62979;55.720;37.606;2023-08-31T02:47:01;11.15;;;5.70;;
74495;SDS011;62979;55.720;37.606;2023-08-31T02:49:29;9.85;;;5.53;;
74495;SDS011;62979;55.720;37.606;2023-08-31T02:51:56;10.73;;;6.50;;
74495;SDS011;62979;55.720;37.606;2023-08-31T02:54:23;9.23;;;6.05;;
74495;SDS011;62979;55.720;37.606;2023-08-31T02:56:50;13.00;;;5.40;;
74495;SDS011;62979;55.720;37.606;2023-08-31T02:59:17;9.25;;;5.35;;
74495;SDS011;62979;55.720;37.606;2023-08-31T03:01:44;11.02;;;6.18;;
74495;SDS011;62979;55.720;37.606;2023-08-31T03:04:12;8.13;;;5.95;;
74495;SDS011;62979;55.720;37.606;2023-08-31T03:06:40;10.13;;;6.28;;
74495;SDS011;62979;55.720;37.606;2023-08-31T03:09:07;9.48;;;5.63;;
74495;SDS011;62979;55.720;37.606;2023-08-31T03:11:34;10.13;;;6.35;;
74495;SDS011;62979;55.720;37.606;2023-08-31T03:14:01;8.80;;;6.40;;
74495;SDS011;62979;55.720;37.606;2023-08-31T03:16:28;11.50;;;6.10;;
74495;SDS011;62979;55.720;37.606;2023-08-31T03:18:55;7.75;;;5.57;;
74495;SDS011;62979;55.720;37.606;2023-08-31T03:21:22;11.30;;;6.20;;
74495;SDS011;62979;55.720;37.606;2023-08-31T03:23:50;9.93;;;5.90;;
74495;SDS011;62979;55.720;37.606;2023-08-31T03:26:17;10.98;;;6.18;;
74495;SDS011;62979;55.720;37.606;2023-08-31T03:28:44;13.02;;;5.95;;
74495;SDS011;62979;55.720;37.606;2023-08-31T03:31:11;10.30;;;6.55;;
74495;SDS011;62979;55.720;37.606;2023-08-31T03:33:38;11.70;;;5.63;;
74495;SDS011;62979;55.720;37.606;2023-08-31T03:36:05;8.82;;;5.03;;
74495;SDS011;62979;55.720;37.606;2023-08-31T03:38:32;9.80;;;6.03;;
74495;SDS011;62979;55.720;37.606;2023-08-31T03:41:03;11.50;;;5.90;;
74495;SDS011;62979;55.720;37.606;2023-08-31T03:43:31;13.75;;;7.45;;
74495;SDS011;62979;55.720;37.606;2023-08-31T03:45:58;10.00;;;5.93;;
74495;SDS011;62979;55.720;37.606;2023-08-31T03:48:26;11.65;;;6.38;;
74495;SDS011;62979;55.720;37.606;2023-08-31T03:50:53;9.35;;;5.93;;
74495;SDS011;62979;55.720;37.606;2023-08-31T03:53:21;11.27;;;6.60;;
74495;SDS011;62979;55.720;37.606;2023-08-31T03:55:49;8.10;;;5.45;;
74495;SDS011;62979;55.720;37.606;2023-08-31T03:58:17;9.45;;;5.40;;
74495;SDS011;62979;55.720;37.606;2023-08-31T04:00:44;13.05;;;7.55;;
74495;SDS011;62979;55.720;37.606;2023-08-31T04:03:14;10.75;;;6.78;;
74495;SDS011;62979;55.720;37.606;2023-08-31T04:05:41;13.75;;;6.63;;
74495;SDS011;62979;55.720;37.606;2023-08-31T04:08:08;9.57;;;6.70;;
74495;SDS011;62979;55.720;37.606;2023-08-31T04:10:35;10.60;;;6.35;;
74495;SDS011;62979;55.720;37.606;2023-08-31T04:13:03;12.73;;;7.43;;
74495;SDS011;62979;55.720;37.606;2023-08-31T04:17:59;11.88;;;6.90;;
74495;SDS011;62979;55.720;37.606;2023-08-31T04:20:26;11.02;;;6.70;;
74495;SDS011;62979;55.720;37.606;2023-08-31T04:22:53;12.57;;;7.35;;
74495;SDS011;62979;55.720;37.606;2023-08-31T04:25:20;15.07;;;7.65;;
74495;SDS011;62979;55.720;37.606;2023-08-31T04:27:47;11.40;;;7.32;;
74495;SDS011;62979;55.720;37.606;2023-08-31T04:30:14;13.35;;;7.22;;
74495;SDS011;62979;55.720;37.606;2023-08-31T04:32:42;13.98;;;7.53;;
74495;SDS011;62979;55.720;37.606;2023-08-31T04:35:09;12.38;;;6.78;;
74495;SDS011;62979;55.720;37.606;2023-08-31T04:37:36;10.80;;;7.65;;
74495;SDS011;62979;55.720;37.606;2023-08-31T04:40:03;11.85;;;7.28;;
74495;SDS011;62979;55.720;37.606;2023-08-31T04:42:33;16.88;;;9.95;;
74495;SDS011;62979;55.720;37.606;2023-08-31T04:45:01;9.27;;;6.28;;
74495;SDS011;62979;55.720;37.606;2023-08-31T04:47:28;13.45;;;6.10;;
74495;SDS011;62979;55.720;37.606;2023-08-31T04:49:56;12.32;;;6.60;;
74495;SDS011;62979;55.720;37.606;2023-08-31T04:52:24;12.25;;;7.45;;
74495;SDS011;62979;55.720;37.606;2023-08-31T04:54:51;10.93;;;6.30;;
74495;SDS011;62979;55.720;37.606;2023-08-31T04:57:18;14.60;;;5.95;;
74495;SDS011;62979;55.720;37.606;2023-08-31T04:59:45;11.27;;;7.35;;
74495;SDS011;62979;55.720;37.606;2023-08-31T05:02:12;13.07;;;6.43;;
74495;SDS011;62979;55.720;37.606;2023-08-31T05:04:39;11.43;;;5.82;;
74495;SDS011;62979;55.720;37.606;2023-08-31T05:07:07;11.90;;;6.82;;
74495;SDS011;62979;55.720;37.606;2023-08-31T05:09:34;14.90;;;6.03;;
74495;SDS011;62979;55.720;37.606;2023-08-31T05:12:01;13.32;;;7.90;;
74495;SDS011;62979;55.720;37.606;2023-08-31T05:14:29;19.98;;;6.63;;
74495;SDS011;62979;55.720;37.606;2023-08-31T05:16:56;19.45;;;8.55;;
74495;SDS011;62979;55.720;37.606;2023-08-31T05:19:23;15.65;;;8.02;;
74495;SDS011;62979;55.720;37.606;2023-08-31T05:21:49;19.13;;;8.63;;
74495;SDS011;62979;55.720;37.606;2023-08-31T05:24:18;17.02;;;8.82;;
74495;SDS011;62979;55.720;37.606;2023-08-31T05:26:45;11.02;;;8.32;;
74495;SDS011;62979;55.720;37.606;2023-08-31T05:29:12;18.88;;;8.27;;
74495;SDS011;62979;55.720;37.606;2023-08-31T05:31:38;14.25;;;8.18;;
74495;SDS011;62979;55.720;37.606;2023-08-31T05:34:05;13.20;;;7.85;;
74495;SDS011;62979;55.720;37.606;2023-08-31T05:36:32;21.83;;;8.40;;
74495;SDS011;62979;55.720;37.606;2023-08-31T05:38:59;13.82;;;8.15;;
74495;SDS011;62979;55.720;37.606;2023-08-31T05:41:27;20.17;;;8.60;;
74495;SDS011;62979;55.720;37.606;2023-08-31T05:43:54;23.70;;;8.15;;
74495;SDS011;62979;55.720;37.606;2023-08-31T05:46:21;20.90;;;8.10;;
74495;SDS011;62979;55.720;37.606;2023-08-31T05:48:48;17.17;;;8.63;;
74495;SDS011;62979;55.720;37.606;2023-08-31T05:51:15;17.55;;;8.48;;
74495;SDS011;62979;55.720;37.606;2023-08-31T05:53:42;16.92;;;7.78;;
74495;SDS011;62979;55.720;37.606;2023-08-31T05:56:09;17.95;;;7.35;;
74495;SDS011;62979;55.720;37.606;2023-08-31T05:58:37;18.05;;;8.32;;
74495;SDS011;62979;55.720;37.606;2023-08-31T06:01:04;13.77;;;7.93;;
74495;SDS011;62979;55.720;37.606;2023-08-31T06:03:32;14.27;;;7.40;;
74495;SDS011;62979;55.720;37.606;2023-08-31T06:05:59;11.15;;;6.90;;
74495;SDS011;62979;55.720;37.606;2023-08-31T06:08:26;10.48;;;7.70;;
74495;SDS011;62979;55.720;37.606;2023-08-31T06:10:54;15.60;;;7.70;;
74495;SDS011;62979;55.720;37.606;2023-08-31T06:13:21;11.05;;;5.70;;
74495;SDS011;62979;55.720;37.606;2023-08-31T06:15:49;12.57;;;7.15;;
74495;SDS011;62979;55.720;37.606;2023-08-31T06:18:16;14.07;;;7.40;;
74495;SDS011;62979;55.720;37.606;2023-08-31T06:20:43;13.60;;;6.95;;
74495;SDS011;62979;55.720;37.606;2023-08-31T06:23:10;11.85;;;7.18;;
74495;SDS011;62979;55.720;37.606;2023-08-31T06:25:37;9.20;;;6.60;;
74495;SDS011;62979;55.720;37.606;2023-08-31T06:28:04;16.92;;;8.63;;
74495;SDS011;62979;55.720;37.606;2023-08-31T06:30:33;13.38;;;6.18;;
74495;SDS011;62979;55.720;37.606;2023-08-31T06:33:02;15.32;;;7.95;;
74495;SDS011;62979;55.720;37.606;2023-08-31T06:35:29;11.32;;;6.38;;
74495;SDS011;62979;55.720;37.606;2023-08-31T06:37:57;10.23;;;6.68;;
74495;SDS011;62979;55.720;37.606;2023-08-31T06:40:24;11.18;;;5.82;;
74495;SDS011;62979;55.720;37.606;2023-08-31T06:42:51;12.43;;;6.22;;
74495;SDS011;62979;55.720;37.606;2023-08-31T06:45:18;9.57;;;6.03;;
74495;SDS011;62979;55.720;37.606;2023-08-31T06:47:45;14.35;;;6.57;;
74495;SDS011;62979;55.720;37.606;2023-08-31T06:50:13;15.45;;;6.07;;
74495;SDS011;62979;55.720;37.606;2023-08-31T06:52:41;16.10;;;6.35;;
74495;SDS011;62979;55.720;37.606;2023-08-31T06:55:09;9.10;;;6.28;;
74495;SDS011;62979;55.720;37.606;2023-08-31T06:57:37;11.60;;;6.03;;
74495;SDS011;62979;55.720;37.606;2023-08-31T07:00:04;12.35;;;6.47;;
74495;SDS011;62979;55.720;37.606;2023-08-31T07:02:33;16.05;;;6.75;;
74495;SDS011;62979;55.720;37.606;2023-08-31T07:05:03;9.70;;;5.90;;
74495;SDS011;62979;55.720;37.606;2023-08-31T07:07:32;9.35;;;5.60;;
74495;SDS011;62979;55.720;37.606;2023-08-31T07:09:59;10.55;;;6.43;;
74495;SDS011;62979;55.720;37.606;2023-08-31T07:12:27;12.90;;;6.70;;
74495;SDS011;62979;55.720;37.606;2023-08-31T07:14:54;12.68;;;6.18;;
74495;SDS011;62979;55.720;37.606;2023-08-31T07:19:48;11.63;;;5.88;;
74495;SDS011;62979;55.720;37.606;2023-08-31T07:22:15;14.13;;;6.40;;
74495;SDS011;62979;55.720;37.606;2023-08-31T07:24:43;10.88;;;7.28;;
74495;SDS011;62979;55.720;37.606;2023-08-31T07:27:10;14.45;;;6.45;;
74495;SDS011;62979;55.720;37.606;2023-08-31T07:29:37;12.77;;;7.45;;
74495;SDS011;62979;55.720;37.606;2023-08-31T07:32:04;17.58;;;7.30;;
74495;SDS011;62979;55.720;37.606;2023-08-31T07:34:31;13.10;;;6.90;;
74495;SDS011;62979;55.720;37.606;2023-08-31T07:37:01;13.82;;;6.88;;
74495;SDS011;62979;55.720;37.606;2023-08-31T07:41:57;19.83;;;7.40;;
74495;SDS011;62979;55.720;37.606;2023-08-31T07:44:24;15.18;;;7.05;;
74495;SDS011;62979;55.720;37.606;2023-08-31T07:46:51;18.65;;;7.10;;
74495;SDS011;62979;55.720;37.606;2023-08-31T07:49:18;11.18;;;6.60;;
74495;SDS011;62979;55.720;37.606;2023-08-31T07:51:45;12.27;;;6.35;;
74495;SDS011;62979;55.720;37.606;2023-08-31T07:54:18;17.58;;;6.82;;
74495;SDS011;62979;55.720;37.606;2023-08-31T07:56:46;11.60;;;6.55;;
74495;SDS011;62979;55.720;37.606;2023-08-31T07:59:16;13.95;;;7.07;;
74495;SDS011;62979;55.720;37.606;2023-08-31T08:01:43;12.10;;;6.85;;
74495;SDS011;62979;55.720;37.606;2023-08-31T08:04:10;9.93;;;6.38;;
74495;SDS011;62979;55.720;37.606;2023-08-31T08:06:37;13.27;;;6.65;;
74495;SDS011;62979;55.720;37.606;2023-08-31T08:09:04;13.23;;;7.20;;
74495;SDS011;62979;55.720;37.606;2023-08-31T08:11:31;11.57;;;5.97;;
74495;SDS011;62979;55.720;37.606;2023-08-31T08:14:00;14.57;;;6.03;;
74495;SDS011;62979;55.720;37.606;2023-08-31T08:16:29;11.68;;;6.50;;
74495;SDS011;62979;55.720;37.606;2023-08-31T08:18:56;10.82;;;6.70;;
74495;SDS011;62979;55.720;37.606;2023-08-31T08:21:23;8.85;;;6.13;;
74495;SDS011;62979;55.720;37.606;2023-08-31T08:23:50;8.13;;;5.85;;
74495;SDS011;62979;55.720;37.606;2023-08-31T08:26:17;16.55;;;5.80;;
74495;SDS011;62979;55.720;37.606;2023-08-31T08:28:44;12.05;;;6.43;;
74495;SDS011;62979;55.720;37.606;2023-08-31T08:33:39;10.43;;;5.25;;
74495;SDS011;62979;55.720;37.606;2023-08-31T08:36:06;11.35;;;5.90;;
74495;SDS011;62979;55.720;37.606;2023-08-31T08:38:33;12.27;;;6.03;;
74495;SDS011;62979;55.720;37.606;2023-08-31T08:41:04;11.60;;;6.15;;
74495;SDS011;62979;55.720;37.606;2023-08-31T08:43:31;11.10;;;4.75;;
74495;SDS011;62979;55.720;37.606;2023-08-31T08:46:01;10.27;;;5.13;;
74495;SDS011;62979;55.720;37.606;2023-08-31T08:48:33;10.68;;;5.13;;
74495;SDS011;62979;55.720;37.606;2023-08-31T08:51:03;8.75;;;5.13;;
74495;SDS011;62979;55.720;37.606;2023-08-31T08:53:30;9.63;;;5.53;;
74495;SDS011;62979;55.720;37.606;2023-08-31T08:55:58;7.75;;;4.80;;
74495;SDS011;62979;55.720;37.606;2023-08-31T08:58:25;6.47;;;4.57;;
74495;SDS011;62979;55.720;37.606;2023-08-31T09:00:52;10.63;;;4.53;;
74495;SDS011;62979;55.720;37.606;2023-08-31T09:03:22;11.88;;;4.93;;
74495;SDS011;62979;55.720;37.606;2023-08-31T09:05:49;9.52;;;4.80;;
74495;SDS011;62979;55.720;37.606;2023-08-31T09:08:19;7.50;;;5.20;;
74495;SDS011;62979;55.720;37.606;2023-08-31T09:10:54;8.80;;;5.30;;
74495;SDS011;62979;55.720;37.606;2023-08-31T09:13:25;8.18;;;5.55;;
74495;SDS011;62979;55.720;37.606;2023-08-31T09:15:54;10.63;;;5.45;;
74495;SDS011;62979;55.720;37.606;2023-08-31T09:18:25;10.93;;;5.72;;
74495;SDS011;62979;55.720;37.606;2023-08-31T09:20:54;9.63;;;4.80;;
74495;SDS011;62979;55.720;37.606;2023-08-31T09:23:24;8.98;;;5.30;;
74495;SDS011;62979;55.720;37.606;2023-08-31T09:25:52;11.55;;;5.00;;
74495;SDS011;62979;55.720;37.606;2023-08-31T09:28:21;8.07;;;5.13;;
74495;SDS011;62979;55.720;37.606;2023-08-31T09:30:51;6.82;;;4.85;;
74495;SDS011;62979;55.720;37.606;2023-08-31T09:33:28;11.55;;;4.72;;
74495;SDS011;62979;55.720;37.606;2023-08-31T09:35:56;9.25;;;3.83;;
74495;SDS011;62979;55.720;37.606;2023-08-31T09:38:27;7.82;;;4.22;;
74495;SDS011;62979;55.720;37.606;2023-08-31T09:40:58;10.15;;;4.53;;
74495;SDS011;62979;55.720;37.606;2023-08-31T09:43:30;6.22;;;4.80;;
74495;SDS011;62979;55.720;37.606;2023-08-31T09:45:57;8.23;;;5.28;;
74495;SDS011;62979;55.720;37.606;2023-08-31T09:48:26;8.38;;;4.47;;
74495;SDS011;62979;55.720;37.606;2023-08-31T09:53:21;7.28;;;4.28;;
74495;SDS011;62979;55.720;37.606;2023-08-31T09:55:52;11.43;;;4.70;;
74495;SDS011;62979;55.720;37.606;2023-08-31T09:58:22;7.32;;;4.15;;
74495;SDS011;62979;55.720;37.606;2023-08-31T10:00:50;12.35;;;4.80;;
74495;SDS011;62979;55.720;37.606;2023-08-31T10:03:19;10.07;;;4.57;;
74495;SDS011;62979;55.720;37.606;2023-08-31T10:05:47;10.60;;;4.28;;
74495;SDS011;62979;55.720;37.606;2023-08-31T10:08:15;9.77;;;4.50;;
74495;SDS011;62979;55.720;37.606;2023-08-31T10:10:43;7.97;;;4.18;;
74495;SDS011;62979;55.720;37.606;2023-08-31T10:13:12;8.88;;;4.80;;
74495;SDS011;62979;55.720;37.606;2023-08-31T10:15:41;6.57;;;4.38;;
74495;SDS011;62979;55.720;37.606;2023-08-31T10:18:10;8.40;;;4.35;;
74495;SDS011;62979;55.720;37.606;2023-08-31T10:20:39;8.48;;;4.85;;
74495;SDS011;62979;55.720;37.606;2023-08-31T10:23:09;8.73;;;4.30;;
74495;SDS011;62979;55.720;37.606;2023-08-31T10:31:08;10.65;;;5.25;;
74495;SDS011;62979;55.720;37.606;2023-08-31T10:33:42;6.07;;;4.13;;
74495;SDS011;62979;55.720;37.606;2023-08-31T10:36:11;9.43;;;4.13;;
74495;SDS011;62979;55.720;37.606;2023-08-31T10:38:41;6.22;;;4.38;;
74495;SDS011;62979;55.720;37.606;2023-08-31T10:41:18;10.30;;;4.47;;
74495;SDS011;62979;55.720;37.606;2023-08-31T10:43:49;11.82;;;5.22;;
74495;SDS011;62979;55.720;37.606;2023-08-31T10:46:18;9.65;;;4.63;;
74495;SDS011;62979;55.720;37.606;2023-08-31T10:48:53;8.73;;;4.32;;
74495;SDS011;62979;55.720;37.606;2023-08-31T10:51:23;10.35;;;4.43;;
74495;SDS011;62979;55.720;37.606;2023-08-31T10:54:04;7.70;;;4.65;;
74495;SDS011;62979;55.720;37.606;2023-08-31T10:56:38;12.45;;;4.60;;
74495;SDS011;62979;55.720;37.606;2023-08-31T10:59:20;8.90;;;4.90;;
74495;SDS011;62979;55.720;37.606;2023-08-31T11:01:53;4.38;;;3.92;;
74495;SDS011;62979;55.720;37.606;2023-08-31T11:04:25;6.22;;;4.60;;
74495;SDS011;62979;55.720;37.606;2023-08-31T11:09:40;9.50;;;4.70;;
74495;SDS011;62979;55.720;37.606;2023-08-31T11:12:08;5.80;;;3.80;;
74495;SDS011;62979;55.720;37.606;2023-08-31T11:14:37;7.32;;;3.92;;
74495;SDS011;62979;55.720;37.606;2023-08-31T11:17:04;7.40;;;4.15;;
74495;SDS011;62979;55.720;37.606;2023-08-31T11:19:32;7.18;;;4.32;;
74495;SDS011;62979;55.720;37.606;2023-08-31T11:22:00;8.23;;;4.63;;
74495;SDS011;62979;55.720;37.606;2023-08-31T11:24:29;5.97;;;4.28;;
74495;SDS011;62979;55.720;37.606;2023-08-31T11:26:56;6.25;;;3.88;;
74495;SDS011;62979;55.720;37.606;2023-08-31T11:29:23;5.88;;;4.72;;
74495;SDS011;62979;55.720;37.606;2023-08-31T11:31:51;6.25;;;4.47;;
74495;SDS011;62979;55.720;37.606;2023-08-31T11:34:18;7.10;;;4.68;;
74495;SDS011;62979;55.720;37.606;2023-08-31T11:36:46;8.38;;;5.40;;
74495;SDS011;62979;55.720;37.606;2023-08-31T11:39:14;7.32;;;4.28;;
74495;SDS011;62979;55.720;37.606;2023-08-31T11:41:44;8.18;;;5.03;;
74495;SDS011;62979;55.720;37.606;2023-08-31T11:44:11;10.20;;;5.30;;
74495;SDS011;62979;55.720;37.606;2023-08-31T11:46:42;10.15;;;5.38;;
74495;SDS011;62979;55.720;37.606;2023-08-31T11:49:14;10.73;;;6.57;;
74495;SDS011;62979;55.720;37.606;2023-08-31T11:51:43;5.90;;;5.25;;
74495;SDS011;62979;55.720;37.606;2023-08-31T11:54:11;9.13;;;5.40;;
74495;SDS011;62979;55.720;37.606;2023-08-31T11:56:38;9.20;;;5.13;;
74495;SDS011;62979;55.720;37.606;2023-08-31T11:59:09;10.57;;;5.13;;
74495;SDS011;62979;55.720;37.606;2023-08-31T12:01:37;11.00;;;4.88;;
74495;SDS011;62979;55.720;37.606;2023-08-31T12:04:09;13.48;;;5.05;;
74495;SDS011;62979;55.720;37.606;2023-08-31T12:06:39;6.47;;;5.45;;
74495;SDS011;62979;55.720;37.606;2023-08-31T12:09:09;7.65;;;5.57;;
74495;SDS011;62979;55.720;37.606;2023-08-31T12:11:36;6.47;;;5.30;;
74495;SDS011;62979;55.720;37.606;2023-08-31T12:14:03;7.78;;;4.75;;
74495;SDS011;62979;55.720;37.606;2023-08-31T12:16:45;7.10;;;5.00;;
74495;SDS011;62979;55.720;37.606;2023-08-31T12:19:12;9.13;;;5.28;;
74495;SDS011;62979;55.720;37.606;2023-08-31T12:21:41;10.20;;;5.93;;
74495;SDS011;62979;55.720;37.606;2023-08-31T12:24:09;6.38;;;4.72;;
74495;SDS011;62979;55.720;37.606;2023-08-31T12:26:36;7.18;;;5.03;;
74495;SDS011;62979;55.720;37.606;2023-08-31T12:29:04;8.93;;;4.68;;
74495;SDS011;62979;55.720;37.606;2023-08-31T12:31:32;8.32;;;4.20;;
74495;SDS011;62979;55.720;37.606;2023-08-31T12:33:59;5.47;;;4.95;;
74495;SDS011;62979;55.720;37.606;2023-08-31T12:36:29;5.90;;;5.30;;
74495;SDS011;62979;55.720;37.606;2023-08-31T12:38:58;7.47;;;4.97;;
74495;SDS011;62979;55.720;37.606;2023-08-31T12:41:26;6.07;;;4.15;;
74495;SDS011;62979;55.720;37.606;2023-08-31T12:43:54;7.78;;;4.97;;
74495;SDS011;62979;55.720;37.606;2023-08-31T12:46:21;7.65;;;4.50;;
74495;SDS011;62979;55.720;37.606;2023-08-31T12:48:48;5.33;;;4.10;;
74495;SDS011;62979;55.720;37.606;2023-08-31T12:51:15;11.02;;;4.75;;
74495;SDS011;62979;55.720;37.606;2023-08-31T12:53:43;7.68;;;4.03;;
74495;SDS011;62979;55.720;37.606;2023-08-31T12:56:11;5.13;;;4.45;;
74495;SDS011;62979;55.720;37.606;2023-08-31T12:58:38;5.65;;;4.32;;
74495;SDS011;62979;55.720;37.606;2023-08-31T13:01:05;9.40;;;4.70;;
74495;SDS011;62979;55.720;37.606;2023-08-31T13:03:32;9.82;;;5.40;;
74495;SDS011;62979;55.720;37.606;2023-08-31T13:05:59;8.63;;;5.35;;
74495;SDS011;62979;55.720;37.606;2023-08-31T13:08:26;9.30;;;4.18;;
74495;SDS011;62979;55.720;37.606;2023-08-31T13:10:54;5.70;;;4.43;;
74495;SDS011;62979;55.720;37.606;2023-08-31T13:13:22;10.38;;;4.82;;
74495;SDS011;62979;55.720;37.606;2023-08-31T13:15:49;10.55;;;4.35;;
74495;SDS011;62979;55.720;37.606;2023-08-31T13:18:16;5.55;;;4.20;;
74495;SDS011;62979;55.720;37.606;2023-08-31T13:20:48;8.02;;;4.53;;
74495;SDS011;62979;55.720;37.606;2023-08-31T13:23:16;8.63;;;3.83;;
74495;SDS011;62979;55.720;37.606;2023-08-31T13:25:46;6.85;;;4.80;;
74495;SDS011;62979;55.720;37.606;2023-08-31T13:28:14;5.90;;;4.32;;
74495;SDS011;62979;55.720;37.606;2023-08-31T13:30:42;6.43;;;3.45;;
74495;SDS011;62979;55.720;37.606;2023-08-31T13:33:09;6.88;;;4.25;;
74495;SDS011;62979;55.720;37.606;2023-08-31T13:35:36;7.22;;;3.97;;
74495;SDS011;62979;55.720;37.606;2023-08-31T13:38:03;7.60;;;4.63;;
74495;SDS011;62979;55.720;37.606;2023-08-31T13:40:33;5.22;;;4.47;;
74495;SDS011;62979;55.720;37.606;2023-08-31T13:43:01;6.57;;;4.05;;
74495;SDS011;62979;55.720;37.606;2023-08-31T13:45:29;7.32;;;4.13;;
74495;SDS011;62979;55.720;37.606;2023-08-31T13:47:58;11.30;;;5.18;;
74495;SDS011;62979;55.720;37.606;2023-08-31T13:50:25;6.25;;;4.57;;
74495;SDS011;62979;55.720;37.606;2023-08-31T13:52:53;8.63;;;4.28;;
74495;SDS011;62979;55.720;37.606;2023-08-31T13:55:21;9.68;;;4.68;;
74495;SDS011;62979;55.720;37.606;2023-08-31T13:57:49;7.60;;;4.25;;
74495;SDS011;62979;55.720;37.606;2023-08-31T14:00:16;8.00;;;4.38;;
74495;SDS011;62979;55.720;37.606;2023-08-31T14:02:43;8.90;;;4.57;;
74495;SDS011;62979;55.720;37.606;2023-08-31T14:05:12;7.32;;;4.25;;
74495;SDS011;62979;55.720;37.606;2023-08-31T14:07:39;10.98;;;4.45;;
74495;SDS011;62979;55.720;37.606;2023-08-31T14:10:07;4.50;;;4.10;;
74495;SDS011;62979;55.720;37.606;2023-08-31T14:12:35;6.75;;;4.57;;
74495;SDS011;62979;55.720;37.606;2023-08-31T14:15:02;5.60;;;4.43;;
74495;SDS011;62979;55.720;37.606;2023-08-31T14:17:31;7.80;;;4.63;;
74495;SDS011;62979;55.720;37.606;2023-08-31T14:19:59;7.50;;;4.93;;
74495;SDS011;62979;55.720;37.606;2023-08-31T14:22:32;8.73;;;4.60;;
74495;SDS011;62979;55.720;37.606;2023-08-31T14:24:59;7.35;;;4.50;;
74495;SDS011;62979;55.720;37.606;2023-08-31T14:27:26;6.13;;;4.57;;
74495;SDS011;62979;55.720;37.606;2023-08-31T14:29:55;13.23;;;6.03;;
74495;SDS011;62979;55.720;37.606;2023-08-31T14:32:22;5.05;;;4.65;;
74495;SDS011;62979;55.720;37.606;2023-08-31T14:34:49;5.32;;;4.85;;
74495;SDS011;62979;55.720;37.606;2023-08-31T14:37:16;11.20;;;4.32;;
74495;SDS011;62979;55.720;37.606;2023-08-31T14:39:44;8.43;;;4.40;;
74495;SDS011;62979;55.720;37.606;2023-08-31T14:42:11;12.10;;;5.25;;
74495;SDS011;62979;55.720;37.606;2023-08-31T14:44:40;13.45;;;5.60;;
74495;SDS011;62979;55.720;37.606;2023-08-31T14:47:07;9.20;;;4.47;;
74495;SDS011;62979;55.720;37.606;2023-08-31T14:49:34;6.15;;;4.57;;
74495;SDS011;62979;55.720;37.606;2023-08-31T14:52:01;6.93;;;4.38;;
74495;SDS011;62979;55.720;37.606;2023-08-31T14:54:30;5.75;;;4.05;;
74495;SDS011;62979;55.720;37.606;2023-08-31T14:56:59;8.68;;;5.38;;
74495;SDS011;62979;55.720;37.606;2023-08-31T14:59:27;10.20;;;3.97;;